sensor_id;sensor_type;location;lat;lon;timestamp;temperature;humidity
439;DHT22;206;48.782;9.252;2022-12-10T00:00:24;4.60;56.60
439;DHT22;206;48.782;9.252;2022-12-10T00:02:49;4.50;56.60
439;DHT22;206;48.782;9.252;2022-12-10T00:05:15;4.50;57.10
439;DHT22;206;48.782;9.252;2022-12-10T00:07:41;4.50;57.50
439;DHT22;206;48.782;9.252;2022-12-10T00:10:06;4.60;58.40
439;DHT22;206;48.782;9.252;2022-12-10T00:12:32;4.60;58.40
439;DHT22;206;48.782;9.252;2022-12-10T00:14:57;4.60;57.60
439;DHT22;206;48.782;9.252;2022-12-10T00:17:23;4.50;57.10
439;DHT22;206;48.782;9.252;2022-12-10T00:19:49;4.40;57.10
439;DHT22;206;48.782;9.252;2022-12-10T00:22:14;4.30;57.60
439;DHT22;206;48.782;9.252;2022-12-10T00:24:40;4.30;58.30
439;DHT22;206;48.782;9.252;2022-12-10T00:27:05;4.40;58.30
439;DHT22;206;48.782;9.252;2022-12-10T00:29:31;4.40;57.40
439;DHT22;206;48.782;9.252;2022-12-10T00:31:56;4.40;57.20
439;DHT22;206;48.782;9.252;2022-12-10T00:34:22;4.50;57.00
439;DHT22;206;48.782;9.252;2022-12-10T00:36:48;4.50;56.60
439;DHT22;206;48.782;9.252;2022-12-10T00:39:19;4.40;56.00
439;DHT22;206;48.782;9.252;2022-12-10T00:41:46;4.30;56.50
439;DHT22;206;48.782;9.252;2022-12-10T00:44:12;4.30;57.50
439;DHT22;206;48.782;9.252;2022-12-10T00:46:38;4.30;58.20
439;DHT22;206;48.782;9.252;2022-12-10T00:49:04;4.30;57.40
439;DHT22;206;48.782;9.252;2022-12-10T00:51:30;4.30;58.30
439;DHT22;206;48.782;9.252;2022-12-10T00:53:57;4.30;58.30
439;DHT22;206;48.782;9.252;2022-12-10T00:56:26;4.40;57.90
439;DHT22;206;48.782;9.252;2022-12-10T00:58:52;4.40;57.80
439;DHT22;206;48.782;9.252;2022-12-10T01:01:33;4.40;57.20
439;DHT22;206;48.782;9.252;2022-12-10T01:04:02;4.30;56.40
439;DHT22;206;48.782;9.252;2022-12-10T01:06:34;4.30;56.80
439;DHT22;206;48.782;9.252;2022-12-10T01:09:03;4.30;57.40
439;DHT22;206;48.782;9.252;2022-12-10T01:11:31;4.40;57.10
439;DHT22;206;48.782;9.252;2022-12-10T01:13:58;4.30;56.10
439;DHT22;206;48.782;9.252;2022-12-10T01:16:24;4.20;56.30
439;DHT22;206;48.782;9.252;2022-12-10T01:18:53;4.20;57.20
439;DHT22;206;48.782;9.252;2022-12-10T01:21:20;4.20;57.50
439;DHT22;206;48.782;9.252;2022-12-10T01:23:48;4.20;57.10
439;DHT22;206;48.782;9.252;2022-12-10T01:26:16;4.20;57.40
439;DHT22;206;48.782;9.252;2022-12-10T01:28:42;4.20;57.80
439;DHT22;206;48.782;9.252;2022-12-10T01:31:12;4.10;57.60
439;DHT22;206;48.782;9.252;2022-12-10T01:33:39;4.10;58.80
439;DHT22;206;48.782;9.252;2022-12-10T01:36:11;4.20;58.90
439;DHT22;206;48.782;9.252;2022-12-10T01:38:38;4.20;58.90
439;DHT22;206;48.782;9.252;2022-12-10T01:41:05;4.30;58.50
439;DHT22;206;48.782;9.252;2022-12-10T01:43:50;4.30;58.00
439;DHT22;206;48.782;9.252;2022-12-10T01:46:16;4.30;57.40
439;DHT22;206;48.782;9.252;2022-12-10T01:48:42;4.30;57.30
439;DHT22;206;48.782;9.252;2022-12-10T01:51:08;4.30;57.20
439;DHT22;206;48.782;9.252;2022-12-10T01:53:34;4.30;57.40
439;DHT22;206;48.782;9.252;2022-12-10T01:56:00;4.30;57.70
439;DHT22;206;48.782;9.252;2022-12-10T01:58:26;4.20;57.30
439;DHT22;206;48.782;9.252;2022-12-10T02:01:05;4.20;57.50
439;DHT22;206;48.782;9.252;2022-12-10T02:03:48;4.20;57.60
439;DHT22;206;48.782;9.252;2022-12-10T02:06:57;4.00;57.50
439;DHT22;206;48.782;9.252;2022-12-10T02:09:25;4.10;58.80
439;DHT22;206;48.782;9.252;2022-12-10T02:12:43;4.10;58.40
439;DHT22;206;48.782;9.252;2022-12-10T02:17:50;4.10;58.80
439;DHT22;206;48.782;9.252;2022-12-10T02:22:51;4.10;57.40
439;DHT22;206;48.782;9.252;2022-12-10T02:25:22;4.00;57.40
439;DHT22;206;48.782;9.252;2022-12-10T02:27:54;4.00;58.70
439;DHT22;206;48.782;9.252;2022-12-10T02:30:22;4.10;59.90
439;DHT22;206;48.782;9.252;2022-12-10T02:32:49;4.20;60.00
439;DHT22;206;48.782;9.252;2022-12-10T02:35:25;4.20;60.00
439;DHT22;206;48.782;9.252;2022-12-10T02:37:56;4.30;59.30
439;DHT22;206;48.782;9.252;2022-12-10T02:40:26;4.40;58.50
439;DHT22;206;48.782;9.252;2022-12-10T02:42:54;4.40;57.50
439;DHT22;206;48.782;9.252;2022-12-10T02:45:22;4.40;57.30
439;DHT22;206;48.782;9.252;2022-12-10T02:47:49;4.50;57.70
439;DHT22;206;48.782;9.252;2022-12-10T02:50:17;4.40;57.30
439;DHT22;206;48.782;9.252;2022-12-10T02:52:44;4.40;56.80
439;DHT22;206;48.782;9.252;2022-12-10T02:55:13;4.50;56.80
439;DHT22;206;48.782;9.252;2022-12-10T02:58:01;4.40;55.60
439;DHT22;206;48.782;9.252;2022-12-10T03:00:31;4.50;56.60
439;DHT22;206;48.782;9.252;2022-12-10T03:03:07;4.40;56.50
439;DHT22;206;48.782;9.252;2022-12-10T03:05:52;4.30;55.60
439;DHT22;206;48.782;9.252;2022-12-10T03:08:34;4.30;55.00
439;DHT22;206;48.782;9.252;2022-12-10T03:11:11;4.20;57.30
439;DHT22;206;48.782;9.252;2022-12-10T03:13:59;4.20;58.20
439;DHT22;206;48.782;9.252;2022-12-10T03:16:29;4.20;58.30
439;DHT22;206;48.782;9.252;2022-12-10T03:19:00;4.20;58.40
439;DHT22;206;48.782;9.252;2022-12-10T03:21:27;4.20;56.90
439;DHT22;206;48.782;9.252;2022-12-10T03:23:54;4.20;56.40
439;DHT22;206;48.782;9.252;2022-12-10T03:26:21;4.20;56.40
439;DHT22;206;48.782;9.252;2022-12-10T03:28:56;4.20;57.10
439;DHT22;206;48.782;9.252;2022-12-10T03:31:22;4.10;58.80
439;DHT22;206;48.782;9.252;2022-12-10T03:33:48;4.10;57.90
439;DHT22;206;48.782;9.252;2022-12-10T03:36:16;4.10;57.70
439;DHT22;206;48.782;9.252;2022-12-10T03:38:42;4.10;58.80
439;DHT22;206;48.782;9.252;2022-12-10T03:41:08;4.10;58.80
439;DHT22;206;48.782;9.252;2022-12-10T03:43:34;4.00;57.90
439;DHT22;206;48.782;9.252;2022-12-10T03:46:00;4.10;58.90
439;DHT22;206;48.782;9.252;2022-12-10T03:48:26;4.10;59.30
439;DHT22;206;48.782;9.252;2022-12-10T03:50:51;4.10;59.00
439;DHT22;206;48.782;9.252;2022-12-10T03:53:17;4.10;58.80
439;DHT22;206;48.782;9.252;2022-12-10T03:55:42;4.10;58.80
439;DHT22;206;48.782;9.252;2022-12-10T03:58:08;4.10;58.80
439;DHT22;206;48.782;9.252;2022-12-10T04:00:34;4.10;59.10
439;DHT22;206;48.782;9.252;2022-12-10T04:02:59;4.20;59.60
439;DHT22;206;48.782;9.252;2022-12-10T04:05:25;4.20;58.00
439;DHT22;206;48.782;9.252;2022-12-10T04:07:50;4.10;57.10
439;DHT22;206;48.782;9.252;2022-12-10T04:10:16;4.10;57.30
439;DHT22;206;48.782;9.252;2022-12-10T04:12:42;4.10;58.80
439;DHT22;206;48.782;9.252;2022-12-10T04:15:08;4.10;58.40
439;DHT22;206;48.782;9.252;2022-12-10T04:17:52;4.00;57.40
439;DHT22;206;48.782;9.252;2022-12-10T04:20:18;3.90;57.90
439;DHT22;206;48.782;9.252;2022-12-10T04:23:02;3.90;58.00
439;DHT22;206;48.782;9.252;2022-12-10T04:25:46;3.80;58.50
439;DHT22;206;48.782;9.252;2022-12-10T04:28:30;3.70;58.40
439;DHT22;206;48.782;9.252;2022-12-10T04:30:55;3.70;58.40
439;DHT22;206;48.782;9.252;2022-12-10T04:33:21;3.70;58.40
439;DHT22;206;48.782;9.252;2022-12-10T04:35:47;3.70;59.00
439;DHT22;206;48.782;9.252;2022-12-10T04:38:12;3.70;59.30
439;DHT22;206;48.782;9.252;2022-12-10T04:40:38;3.70;59.00
439;DHT22;206;48.782;9.252;2022-12-10T04:43:04;3.70;58.40
439;DHT22;206;48.782;9.252;2022-12-10T04:45:29;3.70;59.50
439;DHT22;206;48.782;9.252;2022-12-10T04:47:55;3.80;58.50
439;DHT22;206;48.782;9.252;2022-12-10T04:50:20;3.80;58.20
439;DHT22;206;48.782;9.252;2022-12-10T04:52:46;3.70;57.90
439;DHT22;206;48.782;9.252;2022-12-10T04:55:11;3.70;58.40
439;DHT22;206;48.782;9.252;2022-12-10T04:57:37;3.70;58.40
439;DHT22;206;48.782;9.252;2022-12-10T05:00:03;3.80;58.50
439;DHT22;206;48.782;9.252;2022-12-10T05:02:29;3.70;58.00
439;DHT22;206;48.782;9.252;2022-12-10T05:04:54;3.80;57.40
439;DHT22;206;48.782;9.252;2022-12-10T05:07:20;3.80;57.00
439;DHT22;206;48.782;9.252;2022-12-10T05:09:45;3.80;56.70
439;DHT22;206;48.782;9.252;2022-12-10T05:12:11;3.80;57.00
439;DHT22;206;48.782;9.252;2022-12-10T05:14:37;3.80;56.60
439;DHT22;206;48.782;9.252;2022-12-10T05:17:02;3.80;56.90
439;DHT22;206;48.782;9.252;2022-12-10T05:19:28;3.70;57.00
439;DHT22;206;48.782;9.252;2022-12-10T05:21:53;3.70;56.90
439;DHT22;206;48.782;9.252;2022-12-10T05:24:38;3.70;56.60
439;DHT22;206;48.782;9.252;2022-12-10T05:27:04;3.60;57.00
439;DHT22;206;48.782;9.252;2022-12-10T05:29:31;3.70;57.20
439;DHT22;206;48.782;9.252;2022-12-10T05:31:57;3.60;57.60
439;DHT22;206;48.782;9.252;2022-12-10T05:34:23;3.60;58.30
439;DHT22;206;48.782;9.252;2022-12-10T05:36:48;3.60;58.30
439;DHT22;206;48.782;9.252;2022-12-10T05:39:14;3.60;58.30
439;DHT22;206;48.782;9.252;2022-12-10T05:41:40;3.60;58.40
439;DHT22;206;48.782;9.252;2022-12-10T05:44:07;3.60;58.30
439;DHT22;206;48.782;9.252;2022-12-10T05:46:34;3.60;58.30
439;DHT22;206;48.782;9.252;2022-12-10T05:49:02;3.60;59.10
439;DHT22;206;48.782;9.252;2022-12-10T05:51:30;3.50;58.80
439;DHT22;206;48.782;9.252;2022-12-10T05:53:57;3.50;59.00
439;DHT22;206;48.782;9.252;2022-12-10T05:56:24;3.40;60.00
439;DHT22;206;48.782;9.252;2022-12-10T05:58:53;3.40;60.20
439;DHT22;206;48.782;9.252;2022-12-10T06:01:22;3.40;60.90
439;DHT22;206;48.782;9.252;2022-12-10T06:03:48;3.40;60.90
439;DHT22;206;48.782;9.252;2022-12-10T06:06:20;3.40;59.80
439;DHT22;206;48.782;9.252;2022-12-10T06:08:46;3.40;59.90
439;DHT22;206;48.782;9.252;2022-12-10T06:11:12;3.40;60.00
439;DHT22;206;48.782;9.252;2022-12-10T06:13:38;3.40;59.70
439;DHT22;206;48.782;9.252;2022-12-10T06:16:05;3.40;60.40
439;DHT22;206;48.782;9.252;2022-12-10T06:18:31;3.40;60.70
439;DHT22;206;48.782;9.252;2022-12-10T06:20:56;3.40;60.00
439;DHT22;206;48.782;9.252;2022-12-10T06:23:22;3.40;59.10
439;DHT22;206;48.782;9.252;2022-12-10T06:25:48;3.40;60.00
439;DHT22;206;48.782;9.252;2022-12-10T06:28:13;3.50;59.80
439;DHT22;206;48.782;9.252;2022-12-10T06:30:39;3.50;60.50
439;DHT22;206;48.782;9.252;2022-12-10T06:33:05;3.50;60.80
439;DHT22;206;48.782;9.252;2022-12-10T06:35:30;3.50;59.10
439;DHT22;206;48.782;9.252;2022-12-10T06:37:56;3.50;59.10
439;DHT22;206;48.782;9.252;2022-12-10T06:40:21;3.50;58.90
439;DHT22;206;48.782;9.252;2022-12-10T06:42:47;3.50;59.10
439;DHT22;206;48.782;9.252;2022-12-10T06:45:15;3.40;58.80
439;DHT22;206;48.782;9.252;2022-12-10T06:47:41;3.40;58.50
439;DHT22;206;48.782;9.252;2022-12-10T06:50:06;3.40;58.90
439;DHT22;206;48.782;9.252;2022-12-10T06:52:32;3.40;58.50
439;DHT22;206;48.782;9.252;2022-12-10T06:54:57;3.30;58.10
439;DHT22;206;48.782;9.252;2022-12-10T06:57:23;3.30;58.50
439;DHT22;206;48.782;9.252;2022-12-10T06:59:49;3.20;59.00
439;DHT22;206;48.782;9.252;2022-12-10T07:02:14;3.20;59.90
439;DHT22;206;48.782;9.252;2022-12-10T07:04:40;3.20;60.90
439;DHT22;206;48.782;9.252;2022-12-10T07:07:06;3.20;61.60
439;DHT22;206;48.782;9.252;2022-12-10T07:09:33;3.20;61.10
439;DHT22;206;48.782;9.252;2022-12-10T07:11:59;3.20;60.10
439;DHT22;206;48.782;9.252;2022-12-10T07:14:25;3.20;59.70
439;DHT22;206;48.782;9.252;2022-12-10T07:16:51;3.10;59.90
439;DHT22;206;48.782;9.252;2022-12-10T07:19:18;3.10;59.90
439;DHT22;206;48.782;9.252;2022-12-10T07:21:44;3.10;59.60
439;DHT22;206;48.782;9.252;2022-12-10T07:24:14;3.00;60.20
439;DHT22;206;48.782;9.252;2022-12-10T07:26:41;3.00;61.00
439;DHT22;206;48.782;9.252;2022-12-10T07:29:16;3.00;61.60
439;DHT22;206;48.782;9.252;2022-12-10T07:31:42;3.00;62.20
439;DHT22;206;48.782;9.252;2022-12-10T07:34:09;3.10;62.70
439;DHT22;206;48.782;9.252;2022-12-10T07:36:35;3.10;61.70
439;DHT22;206;48.782;9.252;2022-12-10T07:39:01;3.00;62.00
439;DHT22;206;48.782;9.252;2022-12-10T07:41:27;3.10;62.50
439;DHT22;206;48.782;9.252;2022-12-10T07:43:52;3.20;62.70
439;DHT22;206;48.782;9.252;2022-12-10T07:46:21;3.30;61.20
439;DHT22;206;48.782;9.252;2022-12-10T07:48:47;3.30;60.00
439;DHT22;206;48.782;9.252;2022-12-10T07:51:14;3.40;59.70
439;DHT22;206;48.782;9.252;2022-12-10T07:53:41;3.40;58.70
439;DHT22;206;48.782;9.252;2022-12-10T07:56:07;3.40;57.30
439;DHT22;206;48.782;9.252;2022-12-10T07:58:33;3.40;57.20
439;DHT22;206;48.782;9.252;2022-12-10T08:01:04;3.40;57.30
439;DHT22;206;48.782;9.252;2022-12-10T08:03:30;3.40;57.10
439;DHT22;206;48.782;9.252;2022-12-10T08:06:04;3.30;58.10
439;DHT22;206;48.782;9.252;2022-12-10T08:08:30;3.30;58.70
439;DHT22;206;48.782;9.252;2022-12-10T08:10:59;3.30;58.10
439;DHT22;206;48.782;9.252;2022-12-10T08:13:24;3.20;58.90
439;DHT22;206;48.782;9.252;2022-12-10T08:15:50;3.20;58.10
439;DHT22;206;48.782;9.252;2022-12-10T08:18:16;3.20;58.80
439;DHT22;206;48.782;9.252;2022-12-10T08:20:41;3.20;58.00
439;DHT22;206;48.782;9.252;2022-12-10T08:23:07;3.20;57.80
439;DHT22;206;48.782;9.252;2022-12-10T08:25:32;3.20;58.00
439;DHT22;206;48.782;9.252;2022-12-10T08:27:58;3.20;58.00
439;DHT22;206;48.782;9.252;2022-12-10T08:30:25;3.20;58.00
439;DHT22;206;48.782;9.252;2022-12-10T08:32:50;3.30;58.10
439;DHT22;206;48.782;9.252;2022-12-10T08:35:16;3.30;58.10
439;DHT22;206;48.782;9.252;2022-12-10T08:37:41;3.40;56.60
439;DHT22;206;48.782;9.252;2022-12-10T08:40:07;3.50;56.60
439;DHT22;206;48.782;9.252;2022-12-10T08:42:33;3.50;56.30
439;DHT22;206;48.782;9.252;2022-12-10T08:44:59;3.70;56.10
439;DHT22;206;48.782;9.252;2022-12-10T08:47:24;3.80;55.40
439;DHT22;206;48.782;9.252;2022-12-10T08:49:50;3.90;53.50
439;DHT22;206;48.782;9.252;2022-12-10T08:52:15;3.90;53.60
439;DHT22;206;48.782;9.252;2022-12-10T08:54:41;4.00;53.60
439;DHT22;206;48.782;9.252;2022-12-10T08:57:07;4.00;52.30
439;DHT22;206;48.782;9.252;2022-12-10T08:59:32;4.10;52.40
439;DHT22;206;48.782;9.252;2022-12-10T09:01:58;4.10;51.40
439;DHT22;206;48.782;9.252;2022-12-10T09:04:23;4.10;51.50
439;DHT22;206;48.782;9.252;2022-12-10T09:06:49;4.10;51.20
439;DHT22;206;48.782;9.252;2022-12-10T09:09:15;4.20;50.90
439;DHT22;206;48.782;9.252;2022-12-10T09:11:41;4.20;49.60
439;DHT22;206;48.782;9.252;2022-12-10T09:14:07;4.10;49.50
439;DHT22;206;48.782;9.252;2022-12-10T09:16:35;4.10;50.30
439;DHT22;206;48.782;9.252;2022-12-10T09:19:02;4.20;49.60
439;DHT22;206;48.782;9.252;2022-12-10T09:21:28;4.20;50.20
439;DHT22;206;48.782;9.252;2022-12-10T09:23:55;4.10;49.50
439;DHT22;206;48.782;9.252;2022-12-10T09:26:21;4.00;50.00
439;DHT22;206;48.782;9.252;2022-12-10T09:28:48;4.00;50.80
439;DHT22;206;48.782;9.252;2022-12-10T09:31:16;4.00;50.30
439;DHT22;206;48.782;9.252;2022-12-10T09:33:42;4.00;50.70
439;DHT22;206;48.782;9.252;2022-12-10T09:36:09;4.00;51.70
439;DHT22;206;48.782;9.252;2022-12-10T09:38:38;4.10;51.80
439;DHT22;206;48.782;9.252;2022-12-10T09:44:37;4.20;49.70
439;DHT22;206;48.782;9.252;2022-12-10T09:51:50;4.30;49.60
439;DHT22;206;48.782;9.252;2022-12-10T09:54:31;4.50;50.10
439;DHT22;206;48.782;9.252;2022-12-10T09:56:58;4.60;49.50
439;DHT22;206;48.782;9.252;2022-12-10T09:59:30;4.60;47.60
439;DHT22;206;48.782;9.252;2022-12-10T10:02:26;4.70;47.70
439;DHT22;206;48.782;9.252;2022-12-10T10:05:17;4.70;46.40
439;DHT22;206;48.782;9.252;2022-12-10T10:07:48;4.80;46.30
439;DHT22;206;48.782;9.252;2022-12-10T10:10:44;4.80;45.30
439;DHT22;206;48.782;9.252;2022-12-10T10:13:18;4.80;46.10
439;DHT22;206;48.782;9.252;2022-12-10T10:15:50;4.80;46.00
439;DHT22;206;48.782;9.252;2022-12-10T10:18:39;4.70;43.80
439;DHT22;206;48.782;9.252;2022-12-10T10:23:45;4.40;43.60
439;DHT22;206;48.782;9.252;2022-12-10T10:26:11;4.30;44.60
439;DHT22;206;48.782;9.252;2022-12-10T10:28:38;4.30;45.60
439;DHT22;206;48.782;9.252;2022-12-10T10:31:18;4.30;45.90
439;DHT22;206;48.782;9.252;2022-12-10T10:33:54;4.40;46.60
439;DHT22;206;48.782;9.252;2022-12-10T10:36:34;4.60;45.10
439;DHT22;206;48.782;9.252;2022-12-10T10:41:41;4.50;43.00
439;DHT22;206;48.782;9.252;2022-12-10T10:44:15;4.50;43.60
439;DHT22;206;48.782;9.252;2022-12-10T10:46:42;4.60;42.60
439;DHT22;206;48.782;9.252;2022-12-10T10:49:29;4.50;42.90
439;DHT22;206;48.782;9.252;2022-12-10T10:52:16;4.70;42.10
439;DHT22;206;48.782;9.252;2022-12-10T10:54:44;4.70;42.50
439;DHT22;206;48.782;9.252;2022-12-10T10:57:29;4.70;42.20
439;DHT22;206;48.782;9.252;2022-12-10T11:00:17;4.80;44.10
439;DHT22;206;48.782;9.252;2022-12-10T11:02:44;4.90;43.80
439;DHT22;206;48.782;9.252;2022-12-10T11:07:43;5.10;42.50
439;DHT22;206;48.782;9.252;2022-12-10T11:10:22;5.10;41.60
439;DHT22;206;48.782;9.252;2022-12-10T11:12:58;5.20;41.30
439;DHT22;206;48.782;9.252;2022-12-10T11:15:36;5.20;39.60
439;DHT22;206;48.782;9.252;2022-12-10T11:18:34;5.30;39.70
439;DHT22;206;48.782;9.252;2022-12-10T11:21:04;5.30;41.20
439;DHT22;206;48.782;9.252;2022-12-10T11:23:41;5.20;40.80
439;DHT22;206;48.782;9.252;2022-12-10T11:31:37;4.90;43.00
439;DHT22;206;48.782;9.252;2022-12-10T11:37:31;4.90;44.20
439;DHT22;206;48.782;9.252;2022-12-10T11:42:53;5.20;44.70
439;DHT22;206;48.782;9.252;2022-12-10T11:51:01;5.40;40.90
439;DHT22;206;48.782;9.252;2022-12-10T11:53:50;5.30;40.20
439;DHT22;206;48.782;9.252;2022-12-10T11:56:34;5.30;40.90
439;DHT22;206;48.782;9.252;2022-12-10T11:59:15;5.20;40.30
439;DHT22;206;48.782;9.252;2022-12-10T12:02:13;5.30;41.50
439;DHT22;206;48.782;9.252;2022-12-10T12:13:30;4.90;40.50
439;DHT22;206;48.782;9.252;2022-12-10T12:16:11;4.80;40.40
439;DHT22;206;48.782;9.252;2022-12-10T12:18:52;4.80;42.50
439;DHT22;206;48.782;9.252;2022-12-10T12:21:20;4.90;41.60
439;DHT22;206;48.782;9.252;2022-12-10T12:23:53;4.90;40.50
439;DHT22;206;48.782;9.252;2022-12-10T12:26:26;4.90;40.50
439;DHT22;206;48.782;9.252;2022-12-10T12:31:45;5.00;40.10
439;DHT22;206;48.782;9.252;2022-12-10T12:34:25;5.00;41.90
439;DHT22;206;48.782;9.252;2022-12-10T12:36:52;4.90;39.10
439;DHT22;206;48.782;9.252;2022-12-10T12:45:10;4.60;40.30
439;DHT22;206;48.782;9.252;2022-12-10T12:53:12;4.40;40.60
439;DHT22;206;48.782;9.252;2022-12-10T13:01:37;4.50;40.20
439;DHT22;206;48.782;9.252;2022-12-10T13:04:04;4.50;40.30
439;DHT22;206;48.782;9.252;2022-12-10T13:06:35;4.50;39.70
439;DHT22;206;48.782;9.252;2022-12-10T13:09:23;4.50;40.90
439;DHT22;206;48.782;9.252;2022-12-10T13:14:33;4.60;39.60
439;DHT22;206;48.782;9.252;2022-12-10T13:17:24;4.70;40.30
439;DHT22;206;48.782;9.252;2022-12-10T13:19:50;4.80;39.00
439;DHT22;206;48.782;9.252;2022-12-10T13:25:16;4.90;38.80
439;DHT22;206;48.782;9.252;2022-12-10T13:28:49;4.80;39.00
439;DHT22;206;48.782;9.252;2022-12-10T13:34:03;4.70;39.80
439;DHT22;206;48.782;9.252;2022-12-10T13:41:33;4.50;39.40
439;DHT22;206;48.782;9.252;2022-12-10T13:44:48;4.50;40.20
439;DHT22;206;48.782;9.252;2022-12-10T13:47:42;4.40;40.00
439;DHT22;206;48.782;9.252;2022-12-10T13:50:20;4.40;39.10
439;DHT22;206;48.782;9.252;2022-12-10T13:56:16;4.40;39.30
439;DHT22;206;48.782;9.252;2022-12-10T14:01:48;4.30;40.00
439;DHT22;206;48.782;9.252;2022-12-10T14:04:34;4.40;40.30
439;DHT22;206;48.782;9.252;2022-12-10T14:07:03;4.40;44.30
439;DHT22;206;48.782;9.252;2022-12-10T14:09:34;4.40;47.10
439;DHT22;206;48.782;9.252;2022-12-10T14:12:05;4.30;49.60
439;DHT22;206;48.782;9.252;2022-12-10T14:14:39;4.20;50.50
439;DHT22;206;48.782;9.252;2022-12-10T14:17:09;4.20;50.90
439;DHT22;206;48.782;9.252;2022-12-10T14:19:37;4.20;51.70
439;DHT22;206;48.782;9.252;2022-12-10T14:22:07;4.20;51.80
439;DHT22;206;48.782;9.252;2022-12-10T14:24:38;4.20;51.50
439;DHT22;206;48.782;9.252;2022-12-10T14:27:25;4.10;51.10
439;DHT22;206;48.782;9.252;2022-12-10T14:29:53;4.10;51.90
439;DHT22;206;48.782;9.252;2022-12-10T14:32:35;4.10;52.70
439;DHT22;206;48.782;9.252;2022-12-10T14:35:04;4.00;53.00
439;DHT22;206;48.782;9.252;2022-12-10T14:37:34;4.10;54.10
439;DHT22;206;48.782;9.252;2022-12-10T14:40:01;4.10;53.20
439;DHT22;206;48.782;9.252;2022-12-10T14:42:29;4.10;52.80
439;DHT22;206;48.782;9.252;2022-12-10T14:45:04;4.00;51.30
439;DHT22;206;48.782;9.252;2022-12-10T14:47:38;4.00;53.80
439;DHT22;206;48.782;9.252;2022-12-10T14:50:09;3.90;53.00
439;DHT22;206;48.782;9.252;2022-12-10T14:52:45;3.90;51.40
439;DHT22;206;48.782;9.252;2022-12-10T14:55:15;3.70;52.40
439;DHT22;206;48.782;9.252;2022-12-10T14:57:59;3.70;54.40
439;DHT22;206;48.782;9.252;2022-12-10T15:00:26;3.70;54.40
439;DHT22;206;48.782;9.252;2022-12-10T15:02:55;3.60;55.00
439;DHT22;206;48.782;9.252;2022-12-10T15:05:28;3.60;54.20
439;DHT22;206;48.782;9.252;2022-12-10T15:10:54;3.60;55.80
439;DHT22;206;48.782;9.252;2022-12-10T15:13:28;3.60;55.60
439;DHT22;206;48.782;9.252;2022-12-10T15:15:55;3.70;55.50
439;DHT22;206;48.782;9.252;2022-12-10T15:18:33;3.70;52.50
439;DHT22;206;48.782;9.252;2022-12-10T15:23:41;3.50;52.70
439;DHT22;206;48.782;9.252;2022-12-10T15:26:22;3.50;53.10
439;DHT22;206;48.782;9.252;2022-12-10T15:28:50;3.40;53.50
439;DHT22;206;48.782;9.252;2022-12-10T15:31:30;3.40;51.80
439;DHT22;206;48.782;9.252;2022-12-10T15:33:58;3.30;53.00
439;DHT22;206;48.782;9.252;2022-12-10T15:36:40;3.30;53.50
439;DHT22;206;48.782;9.252;2022-12-10T15:39:23;3.20;55.40
439;DHT22;206;48.782;9.252;2022-12-10T15:42:00;3.20;56.70
439;DHT22;206;48.782;9.252;2022-12-10T15:49:27;3.10;57.50
439;DHT22;206;48.782;9.252;2022-12-10T15:51:52;3.10;58.30
439;DHT22;206;48.782;9.252;2022-12-10T15:54:26;3.10;59.40
439;DHT22;206;48.782;9.252;2022-12-10T15:56:52;3.10;58.40
439;DHT22;206;48.782;9.252;2022-12-10T15:59:17;3.20;59.70
439;DHT22;206;48.782;9.252;2022-12-10T16:01:44;3.30;60.60
439;DHT22;206;48.782;9.252;2022-12-10T16:04:10;3.40;61.30
439;DHT22;206;48.782;9.252;2022-12-10T16:06:35;3.40;57.90
439;DHT22;206;48.782;9.252;2022-12-10T16:09:01;3.50;56.90
439;DHT22;206;48.782;9.252;2022-12-10T16:11:26;3.50;55.50
439;DHT22;206;48.782;9.252;2022-12-10T16:13:54;3.40;54.00
439;DHT22;206;48.782;9.252;2022-12-10T16:16:22;3.50;56.20
439;DHT22;206;48.782;9.252;2022-12-10T16:18:48;3.50;55.00
439;DHT22;206;48.782;9.252;2022-12-10T16:21:13;3.60;55.00
439;DHT22;206;48.782;9.252;2022-12-10T16:23:39;3.60;54.50
439;DHT22;206;48.782;9.252;2022-12-10T16:26:19;3.60;52.50
439;DHT22;206;48.782;9.252;2022-12-10T16:28:46;3.60;50.00
439;DHT22;206;48.782;9.252;2022-12-10T16:31:16;3.50;50.80
439;DHT22;206;48.782;9.252;2022-12-10T16:33:42;3.50;51.60
439;DHT22;206;48.782;9.252;2022-12-10T16:36:12;3.40;50.10
439;DHT22;206;48.782;9.252;2022-12-10T16:38:39;3.30;51.60
439;DHT22;206;48.782;9.252;2022-12-10T16:41:14;3.30;52.40
439;DHT22;206;48.782;9.252;2022-12-10T16:43:40;3.20;51.10
439;DHT22;206;48.782;9.252;2022-12-10T16:46:05;3.20;51.90
439;DHT22;206;48.782;9.252;2022-12-10T16:48:31;3.30;52.20
439;DHT22;206;48.782;9.252;2022-12-10T16:50:57;3.30;52.20
439;DHT22;206;48.782;9.252;2022-12-10T16:53:28;3.30;53.50
439;DHT22;206;48.782;9.252;2022-12-10T16:55:56;3.30;53.50
439;DHT22;206;48.782;9.252;2022-12-10T16:58:23;3.30;52.00
439;DHT22;206;48.782;9.252;2022-12-10T17:00:51;3.30;51.30
439;DHT22;206;48.782;9.252;2022-12-10T17:03:21;3.30;51.20
439;DHT22;206;48.782;9.252;2022-12-10T17:05:57;3.30;51.10
439;DHT22;206;48.782;9.252;2022-12-10T17:08:25;3.20;49.30
439;DHT22;206;48.782;9.252;2022-12-10T17:10:51;3.20;51.40
439;DHT22;206;48.782;9.252;2022-12-10T17:13:36;3.20;51.90
439;DHT22;206;48.782;9.252;2022-12-10T17:16:03;3.10;50.50
439;DHT22;206;48.782;9.252;2022-12-10T17:18:30;3.00;51.10
439;DHT22;206;48.782;9.252;2022-12-10T17:20:57;3.00;53.20
439;DHT22;206;48.782;9.252;2022-12-10T17:23:22;3.00;53.80
439;DHT22;206;48.782;9.252;2022-12-10T17:25:49;3.00;53.20
439;DHT22;206;48.782;9.252;2022-12-10T17:28:17;3.00;52.40
439;DHT22;206;48.782;9.252;2022-12-10T17:30:43;3.10;53.30
439;DHT22;206;48.782;9.252;2022-12-10T17:33:21;3.10;52.40
439;DHT22;206;48.782;9.252;2022-12-10T17:35:48;3.10;53.10
439;DHT22;206;48.782;9.252;2022-12-10T17:38:16;3.10;53.30
439;DHT22;206;48.782;9.252;2022-12-10T17:40:43;3.20;53.40
439;DHT22;206;48.782;9.252;2022-12-10T17:43:08;3.30;53.50
439;DHT22;206;48.782;9.252;2022-12-10T17:45:34;3.30;53.50
439;DHT22;206;48.782;9.252;2022-12-10T17:48:00;3.40;52.30
439;DHT22;206;48.782;9.252;2022-12-10T17:50:31;3.40;52.00
439;DHT22;206;48.782;9.252;2022-12-10T17:53:01;3.30;51.60
439;DHT22;206;48.782;9.252;2022-12-10T17:55:27;3.40;51.90
439;DHT22;206;48.782;9.252;2022-12-10T17:57:53;3.40;52.20
439;DHT22;206;48.782;9.252;2022-12-10T18:00:21;3.30;51.40
439;DHT22;206;48.782;9.252;2022-12-10T18:02:47;3.30;52.70
439;DHT22;206;48.782;9.252;2022-12-10T18:05:14;3.20;51.60
439;DHT22;206;48.782;9.252;2022-12-10T18:07:40;3.20;52.00
439;DHT22;206;48.782;9.252;2022-12-10T18:10:12;3.20;52.50
439;DHT22;206;48.782;9.252;2022-12-10T18:12:39;3.20;52.10
439;DHT22;206;48.782;9.252;2022-12-10T18:15:05;3.10;51.10
439;DHT22;206;48.782;9.252;2022-12-10T18:17:31;2.90;51.30
439;DHT22;206;48.782;9.252;2022-12-10T18:19:56;2.90;52.60
439;DHT22;206;48.782;9.252;2022-12-10T18:22:22;2.80;52.30
439;DHT22;206;48.782;9.252;2022-12-10T18:24:48;2.80;53.00
439;DHT22;206;48.782;9.252;2022-12-10T18:27:15;2.80;54.70
439;DHT22;206;48.782;9.252;2022-12-10T18:29:41;2.80;54.40
439;DHT22;206;48.782;9.252;2022-12-10T18:32:06;2.90;53.20
439;DHT22;206;48.782;9.252;2022-12-10T18:34:34;2.90;54.60
439;DHT22;206;48.782;9.252;2022-12-10T18:37:00;3.00;55.40
439;DHT22;206;48.782;9.252;2022-12-10T18:39:27;3.00;53.20
439;DHT22;206;48.782;9.252;2022-12-10T18:41:59;2.90;52.50
439;DHT22;206;48.782;9.252;2022-12-10T18:44:27;3.00;52.40
439;DHT22;206;48.782;9.252;2022-12-10T18:46:55;3.00;53.60